Hovedside
METAR-TAF:

METAR-TAF

Lufthavner :

Björneborg lufthavn

Björneborg, Finland

breddegrad: 61-28N, lengdegrad: 021-48E, høyde over havet: 13 m

Gjeldene værobservasjon

Denne rapporten ble laget for 35 minutter siden, klokken 04:20 UTC
Vind 1 kt fra skiftende retning
Temperatur 13°C
Luftfuktighet 77%
Trykk 1004 hPa
Sikt 10 km eller mer
ingen skyer under 1500 m og ingen bygeskyer

METAR: EFPO 210420Z AUTO VRB01KT CAVOK 13/09 Q1004

Tid: 07:55 (04:55 UTC)

Varsel

Denne rapporten ble laget for 2 timer og 19 minutter siden, klokken 02:36 UTC
Varsel gyldig fra 21. klokken 03 UTC til 21. klokken 12 UTC
Vind 2 kt fra Sørøst
Sikt 10 km eller mer
ingen skyer under 1500 m og ingen bygeskyer
Midlertidig
fra 21. klokken 10 UTC til 21. klokken 12 UTC
Sikt: 6000 m
Spredte skyer i en høyde av 4000 ft, Bygeskyer.
Brutte skyer i en høyde av 5000 ft
regnbyger

TAF: EFPO 210236Z 2103/2112 14002KT CAVOK TEMPO 2110/2112 6000 SHRA SCT040CB BKN050

Værobservasjoner og værvarsel for over 4000 flyplasser (METAR- og TAF-rapporter).

Tilgjengelige stasjoner er representert av de røde og gule prikkene på kartet.

Hold musepekeren over prikken for å se navnet på stasjonen.

Klikk så for å se værobservasjoner og -varsler.

For å forandre kartet kan du klikke på den grønne knappen med svart kryss for å zoome inn, på den grønne knappen med strek for å zoome ut, eller på de grønne pilene for å se tilstøtende kart.


METAR-TAF: